Terminal Aerodrome Forecast
Issued by NWS

Home | Current Version | Previous Version | Text Only | Print | Product List | Glossary On
Versions: 1 2 3 4 5 6 7 8 9 10 11 12 13 14
000
FTUS44 KLZK 290500
TAFLLQ
TAF
KLLQ 290520Z 2906/3006 09008KT P6SM SCT025
      TEMPO 2910/2914 BKN025
     FM291400 18010G18KT P6SM SCT030 BKN250
      TEMPO 2914/2917 BKN025
     FM300200 19006KT P6SM SCT040=

USA.gov is the U.S. government's official web portal to all federal, state and local government web resources and services.